createdAt,value
2024-01-21T00:00:04.139Z,561.00
2024-01-21T00:01:04.049Z,559.00
2024-01-21T00:02:03.949Z,558.00
2024-01-21T00:03:04.031Z,558.00
2024-01-21T00:04:04.177Z,555.00
2024-01-21T00:05:04.085Z,556.00
2024-01-21T00:06:04.156Z,553.00
2024-01-21T00:07:04.147Z,553.00
2024-01-21T00:08:04.208Z,555.00
2024-01-21T00:09:04.222Z,558.00
2024-01-21T00:10:04.294Z,558.00
2024-01-21T00:11:04.331Z,559.00
2024-01-21T00:12:04.386Z,562.00
2024-01-21T00:13:04.416Z,562.00
2024-01-21T00:14:04.460Z,565.00
2024-01-21T00:15:04.524Z,566.00
2024-01-21T00:16:04.520Z,563.00
2024-01-21T00:17:04.574Z,564.00
2024-01-21T00:18:04.693Z,564.00
2024-01-21T00:19:04.742Z,563.00
2024-01-21T00:20:04.745Z,563.00
2024-01-21T00:21:04.775Z,563.00
2024-01-21T00:22:04.846Z,562.00
2024-01-21T00:23:04.895Z,564.00
2024-01-21T00:24:04.949Z,566.00
2024-01-21T00:25:04.997Z,565.00
2024-01-21T00:26:05.059Z,563.00
2024-01-21T00:27:05.111Z,563.00
2024-01-21T00:28:05.199Z,564.00
2024-01-21T00:29:05.229Z,566.00
2024-01-21T00:30:05.301Z,567.00
2024-01-21T00:31:05.342Z,568.00
2024-01-21T00:32:05.375Z,568.00
2024-01-21T00:33:05.574Z,566.00
2024-01-21T00:34:05.520Z,565.00
2024-01-21T00:35:05.477Z,565.00
2024-01-21T00:36:05.516Z,565.00
2024-01-21T00:37:05.536Z,565.00
2024-01-21T00:38:05.571Z,565.00
2024-01-21T00:39:05.605Z,564.00
2024-01-21T00:40:05.616Z,566.00
2024-01-21T00:41:05.627Z,566.00
2024-01-21T00:42:08.836Z,564.00
2024-01-21T00:43:05.637Z,564.00
2024-01-21T00:44:05.675Z,564.00
2024-01-21T00:45:05.715Z,563.00
2024-01-21T00:46:05.668Z,564.00
2024-01-21T00:47:05.660Z,565.00
2024-01-21T00:48:05.796Z,564.00
2024-01-21T00:49:05.729Z,567.00
2024-01-21T00:50:05.732Z,566.00
2024-01-21T00:51:05.677Z,566.00
2024-01-21T00:52:05.658Z,567.00
2024-01-21T00:53:05.672Z,568.00
2024-01-21T00:54:05.693Z,566.00
2024-01-21T00:55:05.665Z,565.00
2024-01-21T00:56:05.679Z,564.00
2024-01-21T00:57:05.676Z,565.00
2024-01-21T00:58:05.683Z,564.00
2024-01-21T00:59:05.685Z,563.00
2024-01-21T01:00:05.684Z,564.00
2024-01-21T01:01:05.819Z,565.00
2024-01-21T01:02:05.691Z,563.00
2024-01-21T01:03:05.779Z,564.00
2024-01-21T01:04:05.714Z,564.00
2024-01-21T01:05:05.732Z,563.00
2024-01-21T01:06:05.708Z,564.00
2024-01-21T01:07:05.701Z,563.00
2024-01-21T01:08:05.701Z,565.00
2024-01-21T01:09:05.711Z,565.00
2024-01-21T01:10:05.700Z,563.00
2024-01-21T01:11:05.715Z,563.00
2024-01-21T01:12:05.697Z,562.00
2024-01-21T01:13:05.702Z,561.00
2024-01-21T01:14:05.795Z,559.00
2024-01-21T01:15:05.717Z,556.00
2024-01-21T01:16:05.734Z,555.00
2024-01-21T01:17:05.736Z,556.00
2024-01-21T01:18:05.776Z,556.00
2024-01-21T01:19:05.822Z,556.00
2024-01-21T01:20:05.703Z,558.00
2024-01-21T01:21:05.739Z,558.00
2024-01-21T01:22:05.781Z,562.00
2024-01-21T01:23:05.793Z,565.00
2024-01-21T01:24:05.744Z,565.00
2024-01-21T01:25:05.734Z,566.00
2024-01-21T01:26:05.744Z,567.00
2024-01-21T01:27:05.724Z,566.00
2024-01-21T01:28:05.735Z,567.00
2024-01-21T01:29:05.757Z,566.00
2024-01-21T01:30:05.746Z,566.00
2024-01-21T01:31:05.742Z,567.00
2024-01-21T01:32:05.781Z,566.00
2024-01-21T01:33:05.858Z,565.00
2024-01-21T01:34:05.922Z,565.00
2024-01-21T01:35:05.746Z,563.00
2024-01-21T01:36:05.751Z,565.00
2024-01-21T01:37:05.732Z,565.00
2024-01-21T01:38:05.755Z,564.00
2024-01-21T01:39:05.740Z,563.00
2024-01-21T01:40:05.750Z,564.00
2024-01-21T01:41:05.758Z,564.00
2024-01-21T01:42:05.822Z,563.00
2024-01-21T01:43:05.873Z,562.00
2024-01-21T01:44:05.749Z,563.00
2024-01-21T01:45:05.757Z,563.00
2024-01-21T01:46:05.778Z,564.00
2024-01-21T01:47:05.753Z,563.00
2024-01-21T01:48:05.829Z,564.00
2024-01-21T01:49:05.840Z,565.00
2024-01-21T01:50:05.775Z,565.00
2024-01-21T01:51:05.771Z,563.00
2024-01-21T01:52:05.808Z,566.00
2024-01-21T01:53:05.775Z,564.00
2024-01-21T01:54:05.775Z,565.00
2024-01-21T01:55:05.776Z,564.00
2024-01-21T01:56:05.795Z,565.00
2024-01-21T01:57:05.780Z,566.00
2024-01-21T01:58:05.796Z,565.00
2024-01-21T01:59:05.805Z,566.00
2024-01-21T02:00:05.871Z,562.00
2024-01-21T02:01:06.050Z,561.00
2024-01-21T02:02:05.870Z,557.00
2024-01-21T02:03:05.953Z,556.00
2024-01-21T02:04:05.986Z,556.00
2024-01-21T02:05:05.944Z,555.00
2024-01-21T02:06:05.950Z,555.00
2024-01-21T02:07:05.966Z,556.00
2024-01-21T02:08:05.981Z,554.00
2024-01-21T02:09:06.025Z,551.00
2024-01-21T02:10:06.067Z,554.00
2024-01-21T02:11:06.078Z,555.00
2024-01-21T02:12:06.153Z,556.00
2024-01-21T02:13:06.161Z,557.00
2024-01-21T02:14:06.178Z,560.00
2024-01-21T02:15:06.206Z,558.00
2024-01-21T02:16:06.275Z,559.00
2024-01-21T02:17:06.282Z,559.00
2024-01-21T02:18:06.432Z,557.00
2024-01-21T02:19:06.476Z,558.00
2024-01-21T02:20:06.390Z,560.00
2024-01-21T02:21:06.406Z,560.00
2024-01-21T02:22:06.439Z,559.00
2024-01-21T02:23:06.462Z,559.00
2024-01-21T02:24:06.470Z,559.00
2024-01-21T02:25:06.483Z,558.00
2024-01-21T02:26:06.505Z,559.00
2024-01-21T02:27:06.550Z,559.00
2024-01-21T02:28:06.591Z,559.00
2024-01-21T02:29:06.608Z,559.00
2024-01-21T02:30:06.689Z,556.00
2024-01-21T02:31:06.721Z,556.00
2024-01-21T02:32:06.713Z,557.00
2024-01-21T02:33:06.787Z,558.00
2024-01-21T02:34:06.890Z,557.00
2024-01-21T02:35:06.821Z,555.00
2024-01-21T02:36:06.910Z,557.00
2024-01-21T02:37:06.910Z,557.00
2024-01-21T02:38:06.964Z,557.00
2024-01-21T02:39:07.001Z,557.00
2024-01-21T02:40:07.086Z,557.00
2024-01-21T02:41:07.083Z,559.00
2024-01-21T02:42:07.120Z,558.00
2024-01-21T02:43:07.191Z,558.00
2024-01-21T02:44:07.249Z,556.00
2024-01-21T02:45:07.272Z,556.00
2024-01-21T02:46:07.355Z,557.00
2024-01-21T02:47:07.332Z,555.00
2024-01-21T02:48:07.435Z,555.00
2024-01-21T02:49:07.538Z,556.00
2024-01-21T02:50:07.491Z,555.00
2024-01-21T02:51:07.512Z,554.00
2024-01-21T02:52:07.513Z,555.00
2024-01-21T02:53:07.534Z,555.00
2024-01-21T02:54:07.591Z,554.00
2024-01-21T02:55:07.605Z,554.00
2024-01-21T02:56:07.622Z,554.00
2024-01-21T02:57:07.645Z,554.00
2024-01-21T02:58:07.671Z,554.00
2024-01-21T02:59:07.682Z,553.00
2024-01-21T03:00:07.698Z,554.00
2024-01-21T03:01:07.783Z,553.00
2024-01-21T03:02:07.792Z,554.00
2024-01-21T03:03:07.762Z,554.00
2024-01-21T03:04:07.730Z,554.00
2024-01-21T03:05:07.779Z,555.00
2024-01-21T03:06:07.765Z,554.00
2024-01-21T03:07:07.789Z,551.00
2024-01-21T03:08:07.819Z,551.00
2024-01-21T03:09:07.817Z,551.00
2024-01-21T03:10:07.842Z,550.00
2024-01-21T03:11:07.866Z,550.00
2024-01-21T03:12:07.848Z,548.00
2024-01-21T03:13:07.849Z,549.00
2024-01-21T03:14:07.896Z,547.00
2024-01-21T03:15:07.859Z,546.00
2024-01-21T03:16:07.901Z,548.00
2024-01-21T03:17:07.897Z,550.00
2024-01-21T03:18:07.955Z,552.00
2024-01-21T03:19:07.930Z,553.00
2024-01-21T03:20:07.927Z,554.00
2024-01-21T03:21:07.932Z,555.00
2024-01-21T03:22:07.900Z,557.00
2024-01-21T03:23:07.925Z,557.00
2024-01-21T03:24:07.904Z,556.00
2024-01-21T03:25:07.924Z,556.00
2024-01-21T03:26:07.935Z,557.00
2024-01-21T03:27:07.939Z,558.00
2024-01-21T03:28:08.018Z,557.00
2024-01-21T03:29:07.993Z,556.00
2024-01-21T03:30:08.016Z,558.00
2024-01-21T03:31:08.030Z,558.00
2024-01-21T03:32:08.023Z,556.00
2024-01-21T03:33:08.110Z,554.00
2024-01-21T03:34:08.140Z,553.00
2024-01-21T03:35:08.050Z,552.00
2024-01-21T03:36:08.081Z,551.00
2024-01-21T03:37:08.054Z,551.00
2024-01-21T03:38:08.050Z,553.00
2024-01-21T03:39:08.069Z,554.00
2024-01-21T03:40:08.054Z,553.00
2024-01-21T03:41:08.068Z,554.00
2024-01-21T03:42:08.074Z,554.00
2024-01-21T03:43:08.074Z,557.00
2024-01-21T03:44:08.062Z,557.00
2024-01-21T03:45:08.072Z,556.00
2024-01-21T03:46:08.075Z,556.00
2024-01-21T03:47:08.072Z,556.00
2024-01-21T03:48:08.175Z,557.00
2024-01-21T03:49:08.194Z,556.00
2024-01-21T03:50:08.097Z,557.00
2024-01-21T03:51:08.096Z,556.00
2024-01-21T03:52:08.210Z,554.00
2024-01-21T03:53:08.128Z,553.00
2024-01-21T03:54:08.105Z,552.00
2024-01-21T03:55:08.116Z,553.00
2024-01-21T03:56:08.141Z,551.00
2024-01-21T03:57:08.179Z,551.00
2024-01-21T03:58:08.135Z,552.00
2024-01-21T03:59:08.147Z,551.00
2024-01-21T04:00:08.252Z,553.00
2024-01-21T04:01:08.306Z,554.00
2024-01-21T04:02:08.175Z,556.00
2024-01-21T04:03:08.228Z,557.00
2024-01-21T04:04:08.268Z,556.00
2024-01-21T04:05:08.323Z,554.00
2024-01-21T04:06:08.177Z,553.00
2024-01-21T04:07:08.183Z,554.00
2024-01-21T04:08:08.215Z,552.00
2024-01-21T04:09:08.184Z,550.00
2024-01-21T04:10:08.190Z,551.00
2024-01-21T04:11:08.218Z,551.00
2024-01-21T04:12:08.224Z,549.00
2024-01-21T04:13:08.259Z,549.00
2024-01-21T04:14:08.262Z,550.00
2024-01-21T04:15:08.235Z,551.00
2024-01-21T04:16:08.303Z,550.00
2024-01-21T04:17:08.272Z,551.00
2024-01-21T04:18:08.328Z,551.00
2024-01-21T04:19:08.381Z,551.00
2024-01-21T04:20:08.341Z,551.00
2024-01-21T04:21:08.349Z,550.00
2024-01-21T04:22:08.360Z,550.00
2024-01-21T04:23:08.373Z,550.00
2024-01-21T04:24:08.386Z,549.00
2024-01-21T04:25:08.380Z,547.00
2024-01-21T04:26:08.387Z,548.00
2024-01-21T04:27:08.402Z,548.00
2024-01-21T04:28:08.393Z,549.00
2024-01-21T04:29:08.393Z,549.00
2024-01-21T04:30:08.428Z,548.00
2024-01-21T04:31:08.440Z,547.00
2024-01-21T04:32:08.433Z,546.00
2024-01-21T04:33:08.491Z,547.00
2024-01-21T04:34:08.513Z,548.00
2024-01-21T04:35:08.466Z,549.00
2024-01-21T04:36:08.459Z,548.00
2024-01-21T04:37:08.460Z,546.00
2024-01-21T04:38:08.449Z,546.00
2024-01-21T04:39:08.478Z,547.00
2024-01-21T04:40:08.471Z,548.00
2024-01-21T04:41:08.495Z,551.00
2024-01-21T04:42:08.526Z,552.00
2024-01-21T04:43:08.500Z,553.00
2024-01-21T04:44:08.520Z,549.00
2024-01-21T04:45:10.870Z,549.00
2024-01-21T04:46:08.578Z,546.00
2024-01-21T04:47:08.519Z,547.00
2024-01-21T04:48:08.582Z,547.00
2024-01-21T04:49:08.575Z,547.00
2024-01-21T04:50:08.526Z,547.00
2024-01-21T04:51:08.551Z,546.00
2024-01-21T04:52:08.525Z,546.00
2024-01-21T04:53:08.538Z,547.00
2024-01-21T04:54:08.528Z,547.00
2024-01-21T04:55:08.522Z,547.00
2024-01-21T04:56:08.530Z,546.00
2024-01-21T04:57:15.888Z,560.00
2024-01-21T04:58:15.893Z,559.00
2024-01-21T04:59:15.857Z,558.00
2024-01-21T05:00:15.881Z,557.00
2024-01-21T05:01:15.931Z,554.00
2024-01-21T05:02:15.876Z,553.00
2024-01-21T05:03:15.942Z,550.00
2024-01-21T05:04:15.979Z,547.00
2024-01-21T05:05:15.905Z,547.00
2024-01-21T05:06:15.965Z,548.00
2024-01-21T05:07:15.897Z,549.00
2024-01-21T05:08:15.881Z,548.00
2024-01-21T05:09:15.899Z,546.00
2024-01-21T05:10:15.908Z,546.00
2024-01-21T05:11:15.887Z,546.00
2024-01-21T05:12:15.931Z,546.00
2024-01-21T05:13:15.901Z,543.00
2024-01-21T05:14:15.893Z,542.00
2024-01-21T05:15:15.937Z,543.00
2024-01-21T05:16:15.917Z,540.00
2024-01-21T05:17:15.899Z,540.00
2024-01-21T05:18:15.946Z,540.00
2024-01-21T05:19:15.965Z,541.00
2024-01-21T05:20:15.938Z,540.00
2024-01-21T05:21:15.926Z,540.00
2024-01-21T05:22:15.935Z,540.00
2024-01-21T05:23:15.909Z,541.00
2024-01-21T05:24:15.941Z,542.00
2024-01-21T05:25:15.931Z,543.00
2024-01-21T05:26:15.966Z,541.00
2024-01-21T05:27:15.979Z,539.00
2024-01-21T05:28:15.918Z,540.00
2024-01-21T05:29:15.936Z,540.00
2024-01-21T05:30:15.978Z,539.00
2024-01-21T05:31:15.981Z,539.00
2024-01-21T05:32:15.951Z,539.00
2024-01-21T05:33:15.944Z,540.00
2024-01-21T05:34:16.002Z,539.00
2024-01-21T05:35:15.995Z,539.00
2024-01-21T05:36:15.990Z,539.00
2024-01-21T05:37:16.036Z,538.00
2024-01-21T05:38:15.959Z,537.00
2024-01-21T05:39:15.985Z,535.00
2024-01-21T05:40:15.955Z,536.00
2024-01-21T05:41:15.959Z,535.00
2024-01-21T05:42:16.017Z,536.00
2024-01-21T05:43:15.965Z,538.00
2024-01-21T05:44:15.982Z,538.00
2024-01-21T05:45:15.986Z,539.00
2024-01-21T05:46:15.975Z,540.00
2024-01-21T05:47:15.972Z,540.00
2024-01-21T05:48:16.072Z,540.00
2024-01-21T05:49:16.005Z,539.00
2024-01-21T05:50:15.994Z,541.00
2024-01-21T05:51:16.039Z,537.00
2024-01-21T05:52:15.988Z,536.00
2024-01-21T05:53:15.978Z,534.00
2024-01-21T05:54:16.018Z,534.00
2024-01-21T05:55:15.998Z,537.00
2024-01-21T05:56:15.983Z,538.00
2024-01-21T05:57:16.069Z,541.00
2024-01-21T05:58:15.986Z,541.00
2024-01-21T05:59:15.999Z,542.00
2024-01-21T06:00:16.030Z,543.00
2024-01-21T06:01:16.128Z,545.00
2024-01-21T06:02:16.050Z,544.00
2024-01-21T06:03:16.119Z,545.00
2024-01-21T06:04:16.046Z,544.00
2024-01-21T06:05:16.003Z,542.00
2024-01-21T06:06:16.028Z,543.00
2024-01-21T06:07:16.015Z,543.00
2024-01-21T06:08:16.034Z,541.00
2024-01-21T06:09:16.089Z,541.00
2024-01-21T06:10:16.011Z,541.00
2024-01-21T06:11:16.043Z,539.00
2024-01-21T06:12:16.049Z,540.00
2024-01-21T06:13:16.059Z,538.00
2024-01-21T06:14:16.015Z,537.00
2024-01-21T06:15:16.073Z,536.00
2024-01-21T06:16:16.024Z,535.00
2024-01-21T06:17:16.029Z,536.00
2024-01-21T06:18:16.183Z,536.00
2024-01-21T06:19:16.155Z,534.00
2024-01-21T06:20:16.031Z,534.00
2024-01-21T06:21:16.068Z,534.00
2024-01-21T06:22:16.034Z,534.00
2024-01-21T06:23:16.029Z,536.00
2024-01-21T06:24:16.047Z,537.00
2024-01-21T06:25:16.026Z,537.00
2024-01-21T06:26:16.034Z,536.00
2024-01-21T06:27:16.115Z,536.00
2024-01-21T06:28:16.052Z,534.00
2024-01-21T06:29:16.055Z,535.00
2024-01-21T06:30:16.169Z,533.00
2024-01-21T06:31:16.056Z,534.00
2024-01-21T06:32:16.053Z,535.00
2024-01-21T06:33:16.140Z,535.00
2024-01-21T06:34:16.107Z,534.00
2024-01-21T06:35:16.076Z,536.00
2024-01-21T06:36:16.122Z,538.00
2024-01-21T06:37:16.052Z,539.00
2024-01-21T06:38:16.058Z,538.00
2024-01-21T06:39:16.070Z,538.00
2024-01-21T06:40:16.154Z,539.00
2024-01-21T06:41:16.064Z,542.00
2024-01-21T06:42:16.133Z,543.00
2024-01-21T06:43:16.066Z,543.00
2024-01-21T06:44:16.064Z,540.00
2024-01-21T06:45:16.186Z,540.00
2024-01-21T06:46:16.068Z,539.00
2024-01-21T06:47:16.089Z,540.00
2024-01-21T06:48:16.175Z,539.00
2024-01-21T06:49:16.221Z,539.00
2024-01-21T06:50:16.078Z,539.00
2024-01-21T06:51:16.118Z,541.00
2024-01-21T06:52:16.073Z,540.00
2024-01-21T06:53:16.099Z,539.00
2024-01-21T06:54:16.123Z,540.00
2024-01-21T06:55:16.082Z,541.00
2024-01-21T06:56:16.100Z,546.00
2024-01-21T06:57:16.141Z,548.00
2024-01-21T06:58:16.090Z,548.00
2024-01-21T06:59:16.084Z,549.00
2024-01-21T07:00:16.181Z,550.00
2024-01-21T07:01:16.182Z,550.00
2024-01-21T07:02:16.114Z,546.00
2024-01-21T07:03:16.173Z,544.00
2024-01-21T07:04:16.302Z,543.00
2024-01-21T07:05:16.117Z,545.00
2024-01-21T07:06:16.214Z,547.00
2024-01-21T07:07:16.139Z,546.00
2024-01-21T07:08:16.114Z,543.00
2024-01-21T07:09:16.142Z,546.00
2024-01-21T07:10:16.139Z,546.00
2024-01-21T07:11:16.135Z,547.00
2024-01-21T07:12:16.169Z,548.00
2024-01-21T07:13:16.143Z,546.00
2024-01-21T07:14:16.146Z,543.00
2024-01-21T07:15:16.209Z,541.00
2024-01-21T07:16:16.159Z,541.00
2024-01-21T07:17:16.141Z,540.00
2024-01-21T07:18:16.221Z,539.00
2024-01-21T07:19:16.258Z,539.00
2024-01-21T07:20:16.172Z,538.00
2024-01-21T07:21:16.220Z,538.00
2024-01-21T07:22:16.153Z,537.00
2024-01-21T07:23:16.151Z,539.00
2024-01-21T07:24:16.210Z,541.00
2024-01-21T07:25:16.341Z,545.00
2024-01-21T07:26:16.169Z,546.00
2024-01-21T07:27:16.191Z,545.00
2024-01-21T07:28:16.170Z,543.00
2024-01-21T07:29:16.166Z,543.00
2024-01-21T07:30:16.252Z,543.00
2024-01-21T07:31:16.200Z,543.00
2024-01-21T07:32:16.170Z,543.00
2024-01-21T07:33:16.319Z,542.00
2024-01-21T07:34:16.315Z,545.00
2024-01-21T07:35:16.183Z,545.00
2024-01-21T07:36:16.237Z,546.00
2024-01-21T07:37:16.192Z,546.00
2024-01-21T07:38:16.198Z,545.00
2024-01-21T07:39:16.233Z,545.00
2024-01-21T07:40:16.235Z,544.00
2024-01-21T07:41:16.201Z,544.00
2024-01-21T07:42:16.252Z,545.00
2024-01-21T07:43:16.208Z,547.00
2024-01-21T07:44:16.242Z,548.00
2024-01-21T07:45:16.274Z,550.00
2024-01-21T07:46:16.280Z,560.00
2024-01-21T07:47:16.297Z,604.00
2024-01-21T07:48:16.337Z,606.00
2024-01-21T07:49:16.410Z,607.00
2024-01-21T07:50:16.356Z,608.00
2024-01-21T07:51:16.423Z,614.00
2024-01-21T07:52:16.372Z,614.00
2024-01-21T07:53:16.367Z,613.00
2024-01-21T07:54:16.417Z,599.00
2024-01-21T07:55:16.401Z,590.00
2024-01-21T07:56:16.429Z,585.00
2024-01-21T07:57:16.449Z,579.00
2024-01-21T07:58:16.463Z,572.00
2024-01-21T07:59:16.455Z,568.00
2024-01-21T08:00:16.506Z,568.00
2024-01-21T08:01:16.715Z,565.00
2024-01-21T08:02:16.495Z,562.00
2024-01-21T08:03:16.655Z,562.00
2024-01-21T08:04:16.601Z,560.00
2024-01-21T08:05:16.548Z,556.00
2024-01-21T08:06:16.731Z,554.00
2024-01-21T08:07:16.582Z,552.00
2024-01-21T08:08:16.542Z,551.00
2024-01-21T08:09:19.398Z,549.00
2024-01-21T08:10:16.593Z,549.00
2024-01-21T08:11:16.560Z,548.00
2024-01-21T08:12:16.611Z,548.00
2024-01-21T08:13:16.555Z,550.00
2024-01-21T08:14:16.549Z,549.00
2024-01-21T08:15:16.601Z,547.00
2024-01-21T08:16:16.553Z,545.00
2024-01-21T08:17:16.591Z,545.00
2024-01-21T08:18:16.628Z,545.00
2024-01-21T08:19:16.656Z,545.00
2024-01-21T08:20:16.652Z,545.00
2024-01-21T08:21:16.602Z,544.00
2024-01-21T08:22:16.824Z,543.00
2024-01-21T08:23:16.558Z,544.00
2024-01-21T08:24:16.675Z,544.00
2024-01-21T08:25:16.571Z,546.00
2024-01-21T08:26:16.576Z,546.00
2024-01-21T08:27:16.614Z,549.00
2024-01-21T08:28:16.577Z,551.00
2024-01-21T08:29:16.577Z,553.00
2024-01-21T08:30:16.615Z,552.00
2024-01-21T08:31:16.593Z,551.00
2024-01-21T08:32:16.601Z,549.00
2024-01-21T08:33:16.725Z,548.00
2024-01-21T08:34:16.636Z,548.00
2024-01-21T08:35:16.620Z,547.00
2024-01-21T08:36:16.668Z,547.00
2024-01-21T08:37:16.619Z,548.00
2024-01-21T08:38:16.625Z,547.00
2024-01-21T08:39:16.623Z,548.00
2024-01-21T08:40:16.691Z,549.00
2024-01-21T08:41:16.609Z,549.00
2024-01-21T08:42:16.646Z,547.00
2024-01-21T08:43:16.606Z,548.00
2024-01-21T08:44:16.624Z,547.00
2024-01-21T08:45:16.681Z,546.00
2024-01-21T08:46:16.767Z,546.00
2024-01-21T08:47:16.651Z,549.00
2024-01-21T08:48:16.767Z,549.00
2024-01-21T08:49:16.695Z,550.00
2024-01-21T08:50:16.609Z,551.00
2024-01-21T08:51:16.648Z,551.00
2024-01-21T08:52:16.608Z,552.00
2024-01-21T08:53:16.615Z,551.00
2024-01-21T08:54:16.678Z,550.00
2024-01-21T08:55:16.620Z,549.00
2024-01-21T08:56:16.639Z,550.00
2024-01-21T08:57:16.695Z,551.00
2024-01-21T08:58:16.650Z,550.00
2024-01-21T08:59:16.644Z,551.00
2024-01-21T09:00:16.681Z,553.00
2024-01-21T09:01:16.725Z,552.00
2024-01-21T09:02:16.642Z,551.00
2024-01-21T09:03:16.787Z,551.00
2024-01-21T09:04:16.837Z,549.00
2024-01-21T09:05:16.810Z,548.00
2024-01-21T09:06:16.881Z,548.00
2024-01-21T09:07:16.769Z,549.00
2024-01-21T09:08:16.685Z,547.00
2024-01-21T09:09:16.673Z,548.00
2024-01-21T09:10:16.636Z,549.00
2024-01-21T09:11:16.644Z,549.00
2024-01-21T09:12:16.683Z,550.00
2024-01-21T09:13:16.640Z,550.00
2024-01-21T09:14:16.648Z,548.00
2024-01-21T09:15:16.713Z,546.00
2024-01-21T09:16:16.680Z,543.00
2024-01-21T09:17:16.660Z,544.00
2024-01-21T09:18:16.880Z,543.00
2024-01-21T09:19:16.696Z,543.00
2024-01-21T09:20:16.651Z,544.00
2024-01-21T09:21:26.573Z,545.00
2024-01-21T09:22:17.669Z,546.00
2024-01-21T09:23:16.647Z,547.00
2024-01-21T09:24:17.117Z,545.00
2024-01-21T09:25:16.652Z,543.00
2024-01-21T09:26:16.665Z,542.00
2024-01-21T09:27:16.672Z,543.00
2024-01-21T09:28:16.669Z,544.00
2024-01-21T09:29:16.678Z,547.00
2024-01-21T09:30:16.738Z,548.00
2024-01-21T09:31:16.669Z,549.00
2024-01-21T09:32:17.698Z,550.00
2024-01-21T09:33:16.817Z,551.00
2024-01-21T09:34:16.912Z,550.00
2024-01-21T09:35:16.713Z,548.00
2024-01-21T09:36:16.687Z,547.00
2024-01-21T09:37:16.701Z,544.00
2024-01-21T09:38:16.677Z,542.00
2024-01-21T09:39:16.686Z,542.00
2024-01-21T09:40:16.714Z,544.00
2024-01-21T09:41:16.682Z,546.00
2024-01-21T09:42:16.715Z,545.00
2024-01-21T09:43:16.716Z,546.00
2024-01-21T09:44:16.707Z,545.00
2024-01-21T09:45:16.742Z,545.00
2024-01-21T09:46:16.685Z,546.00
2024-01-21T09:47:16.699Z,547.00
2024-01-21T09:48:16.800Z,549.00
2024-01-21T09:49:16.816Z,549.00
2024-01-21T09:50:16.755Z,547.00
2024-01-21T09:51:16.738Z,549.00
2024-01-21T09:52:16.727Z,550.00
2024-01-21T09:53:16.709Z,552.00
2024-01-21T09:54:16.749Z,551.00
2024-01-21T09:55:16.737Z,550.00
2024-01-21T09:56:16.716Z,550.00
2024-01-21T09:57:16.807Z,548.00
2024-01-21T09:58:16.747Z,546.00
2024-01-21T09:59:16.726Z,542.00
2024-01-21T10:00:16.757Z,541.00
2024-01-21T10:01:16.907Z,541.00
2024-01-21T10:02:16.732Z,541.00
2024-01-21T10:03:16.796Z,541.00
2024-01-21T10:04:16.961Z,541.00
2024-01-21T10:05:16.802Z,542.00
2024-01-21T10:06:16.832Z,542.00
2024-01-21T10:07:16.863Z,542.00
2024-01-21T10:08:16.846Z,540.00
2024-01-21T10:09:16.827Z,539.00
2024-01-21T10:10:16.918Z,539.00
2024-01-21T10:11:16.790Z,540.00
2024-01-21T10:12:16.818Z,540.00
2024-01-21T10:13:16.833Z,540.00
2024-01-21T10:14:16.811Z,539.00
2024-01-21T10:15:16.944Z,541.00
2024-01-21T10:16:16.852Z,540.00
2024-01-21T10:17:16.827Z,542.00
2024-01-21T10:18:16.985Z,541.00
2024-01-21T10:19:16.907Z,540.00
2024-01-21T10:20:16.869Z,540.00
2024-01-21T10:21:16.871Z,540.00
2024-01-21T10:22:16.885Z,538.00
2024-01-21T10:23:16.888Z,540.00
2024-01-21T10:24:16.933Z,538.00
2024-01-21T10:25:16.911Z,539.00
2024-01-21T10:26:16.923Z,539.00
2024-01-21T10:27:17.161Z,540.00
2024-01-21T10:28:16.966Z,541.00
2024-01-21T10:29:16.964Z,540.00
2024-01-21T10:30:17.062Z,538.00
2024-01-21T10:31:16.963Z,536.00
2024-01-21T10:32:17.063Z,536.00
2024-01-21T10:33:17.070Z,537.00
2024-01-21T10:34:17.035Z,535.00
2024-01-21T10:35:16.982Z,534.00
2024-01-21T10:36:17.035Z,536.00
2024-01-21T10:37:17.043Z,533.00
2024-01-21T10:38:17.034Z,533.00
2024-01-21T10:39:17.038Z,533.00
2024-01-21T10:40:17.045Z,533.00
2024-01-21T10:41:17.098Z,534.00
2024-01-21T10:42:17.172Z,535.00
2024-01-21T10:43:18.810Z,533.00
2024-01-21T10:44:17.083Z,532.00
2024-01-21T10:45:17.155Z,532.00
2024-01-21T10:46:17.139Z,532.00
2024-01-21T10:47:17.210Z,530.00
2024-01-21T10:48:17.178Z,531.00
2024-01-21T10:49:17.147Z,530.00
2024-01-21T10:50:17.176Z,531.00
2024-01-21T10:51:17.153Z,532.00
2024-01-21T10:52:17.090Z,532.00
2024-01-21T10:53:17.101Z,532.00
2024-01-21T10:54:17.135Z,532.00
2024-01-21T10:55:17.210Z,533.00
2024-01-21T10:56:17.127Z,533.00
2024-01-21T10:57:17.249Z,533.00
2024-01-21T10:58:17.097Z,533.00
2024-01-21T10:59:17.119Z,534.00
2024-01-21T11:00:17.090Z,535.00
2024-01-21T11:01:17.250Z,535.00
2024-01-21T11:02:17.144Z,535.00
2024-01-21T11:03:17.120Z,537.00
2024-01-21T11:04:17.123Z,538.00
2024-01-21T11:05:17.201Z,537.00
2024-01-21T11:06:17.223Z,535.00
2024-01-21T11:07:17.178Z,534.00
2024-01-21T11:08:17.143Z,535.00
2024-01-21T11:09:17.123Z,534.00
2024-01-21T11:10:17.118Z,535.00
2024-01-21T11:11:17.164Z,536.00
2024-01-21T11:12:17.153Z,536.00
2024-01-21T11:13:17.143Z,535.00
2024-01-21T11:14:17.116Z,534.00
2024-01-21T11:15:17.175Z,534.00
2024-01-21T11:16:17.156Z,535.00
2024-01-21T11:17:17.146Z,534.00
2024-01-21T11:18:17.193Z,534.00
2024-01-21T11:19:17.217Z,534.00
2024-01-21T11:20:17.153Z,535.00
2024-01-21T11:21:17.188Z,534.00
2024-01-21T11:22:17.127Z,534.00
2024-01-21T11:23:17.183Z,535.00
2024-01-21T11:24:17.207Z,535.00
2024-01-21T11:25:17.128Z,533.00
2024-01-21T11:26:17.165Z,532.00
2024-01-21T11:27:17.156Z,533.00
2024-01-21T11:28:17.961Z,533.00
2024-01-21T11:29:17.148Z,536.00
2024-01-21T11:30:17.153Z,536.00
2024-01-21T11:31:17.189Z,535.00
2024-01-21T11:32:17.151Z,533.00
2024-01-21T11:33:17.239Z,532.00
2024-01-21T11:34:17.201Z,533.00
2024-01-21T11:35:17.162Z,533.00
2024-01-21T11:36:17.290Z,534.00
2024-01-21T11:37:17.158Z,533.00
2024-01-21T11:38:17.196Z,532.00
2024-01-21T11:39:17.188Z,531.00
2024-01-21T11:40:17.191Z,531.00
2024-01-21T11:41:17.195Z,531.00
2024-01-21T11:42:17.211Z,533.00
2024-01-21T11:43:17.165Z,534.00
2024-01-21T11:44:17.180Z,534.00
2024-01-21T11:45:17.214Z,535.00
2024-01-21T11:46:17.202Z,536.00
2024-01-21T11:47:17.185Z,537.00
2024-01-21T11:48:17.254Z,537.00
2024-01-21T11:49:17.249Z,536.00
2024-01-21T11:50:17.237Z,533.00
2024-01-21T11:51:17.184Z,531.00
2024-01-21T11:52:17.187Z,532.00
2024-01-21T11:53:17.168Z,532.00
2024-01-21T11:54:17.235Z,534.00
2024-01-21T11:55:17.170Z,536.00
2024-01-21T11:56:17.209Z,535.00
2024-01-21T11:57:17.207Z,535.00
2024-01-21T11:58:17.214Z,534.00
2024-01-21T11:59:17.216Z,536.00
2024-01-21T12:00:17.276Z,535.00
2024-01-21T12:01:17.388Z,532.00
2024-01-21T12:02:17.312Z,529.00
2024-01-21T12:03:17.394Z,531.00
2024-01-21T12:04:17.411Z,531.00
2024-01-21T12:05:17.436Z,531.00
2024-01-21T12:06:17.593Z,531.00
2024-01-21T12:07:17.593Z,529.00
2024-01-21T12:08:17.548Z,530.00
2024-01-21T12:09:17.602Z,531.00
2024-01-21T12:10:17.648Z,531.00
2024-01-21T12:11:17.747Z,533.00
2024-01-21T12:12:17.797Z,533.00
2024-01-21T12:13:17.758Z,533.00
2024-01-21T12:14:17.793Z,532.00
2024-01-21T12:15:17.831Z,534.00
2024-01-21T12:16:17.839Z,533.00
2024-01-21T12:17:17.905Z,534.00
2024-01-21T12:18:18.022Z,535.00
2024-01-21T12:19:19.831Z,534.00
2024-01-21T12:20:19.574Z,535.00
2024-01-21T12:21:18.129Z,535.00
2024-01-21T12:22:18.121Z,534.00
2024-01-21T12:23:18.132Z,534.00
2024-01-21T12:24:18.245Z,535.00
2024-01-21T12:25:18.201Z,535.00
2024-01-21T12:26:18.383Z,534.00
2024-01-21T12:27:18.360Z,534.00
2024-01-21T12:28:18.329Z,534.00